Time;durP1;ratioP1;P1;durP2;ratioP2;P2;SDS_P1;SDS_P2;PMS_P1;PMS_P2;Temp;Humidity;BMP_temperature;BMP_pressure;BME280_temperature;BME280_humidity;BME280_pressure;Samples;Min_cycle;Max_cycle;Signal;HPM_P1;HPM_P2
2023/08/07 00:00:44;;;;;;;11.38;3.35;;;;;;;14.37;90.85;101122.31;3612976;39;20065;-66
2023/08/07 00:03:11;;;;;;;9.25;3.00;;;;;;;14.37;90.36;101121.44;3614652;39;20305;-65
2023/08/07 00:05:36;;;;;;;11.02;3.05;;;;;;;14.37;89.54;101114.19;3620595;39;20058;-65
2023/08/07 00:08:02;;;;;;;7.22;3.22;;;;;;;14.38;89.04;101115.06;3619503;39;20055;-66
2023/08/07 00:10:28;;;;;;;8.32;2.90;;;;;;;14.39;88.60;101116.78;3611718;39;20062;-65
2023/08/07 00:12:53;;;;;;;11.80;2.40;;;;;;;14.39;88.57;101119.47;3613467;39;20060;-66
2023/08/07 00:15:19;;;;;;;8.95;3.03;;;;;;;14.24;87.62;101096.25;3613940;39;20053;-65
2023/08/07 00:17:45;;;;;;;6.55;2.55;;;;;;;14.41;86.71;101120.25;3616597;39;20075;-66
2023/08/07 00:20:10;;;;;;;11.02;2.88;;;;;;;14.43;86.08;101123.72;3613203;39;20047;-65
2023/08/07 00:22:36;;;;;;;8.32;3.17;;;;;;;14.43;86.21;101123.72;3612576;39;20289;-65
2023/08/07 00:25:02;;;;;;;12.32;2.78;;;;;;;14.48;85.23;101132.31;3611911;39;20054;-66
2023/08/07 00:27:27;;;;;;;7.22;2.53;;;;;;;14.46;84.78;101131.59;3612023;39;20401;-66
2023/08/07 00:29:53;;;;;;;7.75;2.70;;;;;;;14.50;84.28;101143.06;3613887;39;20069;-66
2023/08/07 00:32:19;;;;;;;7.97;2.60;;;;;;;14.50;85.06;101146.63;3616140;39;20205;-66
2023/08/07 00:34:44;;;;;;;9.52;2.70;;;;;;;14.51;86.19;101147.50;3613012;39;20119;-66
2023/08/07 00:37:10;;;;;;;8.35;2.67;;;;;;;14.50;87.96;101153.88;3612366;39;20055;-66
2023/08/07 00:39:35;;;;;;;6.55;3.03;;;;;;;14.45;89.76;101146.06;3614776;39;20058;-66
2023/08/07 00:42:01;;;;;;;11.05;3.13;;;;;;;14.42;90.79;101137.31;3613808;39;20372;-66
2023/08/07 00:44:27;;;;;;;11.23;3.15;;;;;;;14.31;91.38;101133.56;3616316;39;20086;-66
2023/08/07 00:46:54;;;;;;;7.90;2.72;;;;;;;14.20;92.12;101116.38;3606164;39;20091;-66
2023/08/07 00:49:21;;;;;;;7.72;3.00;;;;;;;14.28;92.01;101138.34;3613847;39;20133;-66
2023/08/07 00:51:48;;;;;;;8.15;3.05;;;;;;;14.24;91.60;101144.91;3615208;39;20050;-66
2023/08/07 00:54:19;;;;;;;9.75;3.15;;;;;;;14.19;92.14;101153.38;3605538;39;20054;-66
2023/08/07 00:56:45;;;;;;;8.00;2.40;;;;;;;14.22;92.48;101165.81;3613928;39;20148;-66
2023/08/07 00:59:14;;;;;;;10.07;3.00;;;;;;;14.20;93.08;101163.22;3613571;39;20050;-66
2023/08/07 01:01:40;;;;;;;8.77;2.53;;;;;;;14.18;93.43;101151.66;3617537;39;20082;-65
2023/08/07 01:04:06;;;;;;;6.45;2.63;;;;;;;14.14;93.10;101151.03;3615679;39;20173;-66
2023/08/07 01:06:32;;;;;;;10.63;2.67;;;;;;;14.13;93.37;101141.16;3614217;39;20042;-66
2023/08/07 01:08:58;;;;;;;8.05;3.00;;;;;;;14.11;93.55;101135.03;3615335;39;20097;-66
2023/08/07 01:11:56;;;;;;;9.25;3.05;;;;;;;14.02;93.79;101130.28;3608502;39;20091;-66
2023/08/07 01:14:56;;;;;;;9.40;2.97;;;;;;;14.11;94.35;101145.84;3612427;39;20066;-66
2023/08/07 01:17:23;;;;;;;8.55;2.97;;;;;;;14.13;94.27;101141.16;3607995;39;20051;-66
2023/08/07 01:19:52;;;;;;;8.50;2.97;;;;;;;14.16;93.52;101145.50;3617378;39;20050;-66
2023/08/07 01:22:20;;;;;;;7.15;2.75;;;;;;;14.09;94.05;101136.97;3614399;39;20047;-65
2023/08/07 01:24:49;;;;;;;6.53;2.60;;;;;;;14.19;92.69;101153.38;3613741;39;20057;-66
2023/08/07 01:27:17;;;;;;;11.55;3.05;;;;;;;14.20;93.43;101155.09;3607788;39;20058;-66
2023/08/07 01:30:16;;;;;;;9.65;2.95;;;;;;;14.22;93.30;101152.31;3616109;39;20349;-66
2023/08/07 01:33:34;;;;;;;10.70;2.85;;;;;;;14.24;92.77;101155.75;3599273;39;20103;-66
2023/08/07 01:36:07;;;;;;;7.80;2.97;;;;;;;13.99;92.19;101127.78;3615478;39;20055;-66
2023/08/07 01:38:35;;;;;;;8.70;2.50;;;;;;;14.26;92.07;101183.53;3614277;39;20092;-66
2023/08/07 01:41:02;;;;;;;7.38;2.60;;;;;;;14.26;91.62;101170.03;3612703;39;20382;-66
2023/08/07 01:43:28;;;;;;;6.10;2.53;;;;;;;14.23;90.52;101163.00;3615075;39;20142;-65
2023/08/07 01:45:54;;;;;;;6.15;2.55;;;;;;;14.20;90.26;101170.47;3595972;39;20062;-66
2023/08/07 01:48:20;;;;;;;9.70;2.83;;;;;;;14.22;89.90;101173.94;3612364;39;22122;-66
2023/08/07 01:50:47;;;;;;;4.38;2.53;;;;;;;14.20;89.66;101173.16;3613864;39;20061;-66
2023/08/07 01:53:12;;;;;;;7.38;2.70;;;;;;;14.17;89.87;101172.41;3614988;39;20154;-66
2023/08/07 01:55:38;;;;;;;7.45;2.70;;;;;;;14.15;89.90;101173.50;3617316;39;20285;-66
2023/08/07 01:58:04;;;;;;;8.23;2.47;;;;;;;14.14;89.34;101177.16;3613689;39;20094;-66
2023/08/07 02:00:30;;;;;;;8.73;2.80;;;;;;;14.06;89.43;101175.03;3617080;39;20082;-66
2023/08/07 02:02:55;;;;;;;8.73;2.65;;;;;;;14.07;90.41;101182.16;3615845;39;20324;-66
2023/08/07 02:05:21;;;;;;;7.60;2.60;;;;;;;14.06;89.86;101180.44;3613307;39;20066;-66
2023/08/07 02:07:46;;;;;;;7.95;2.53;;;;;;;14.04;89.61;101185.06;3613212;39;20294;-66
2023/08/07 02:10:12;;;;;;;8.48;3.03;;;;;;;14.06;90.57;101184.97;3614700;39;20054;-65
2023/08/07 02:12:38;;;;;;;9.10;3.17;;;;;;;14.06;90.08;101185.84;3615359;39;20054;-66
2023/08/07 02:15:04;;;;;;;8.30;2.55;;;;;;;14.07;90.35;101187.56;3605012;39;20050;-66
2023/08/07 02:17:30;;;;;;;9.40;3.22;;;;;;;14.05;90.28;101177.81;3615657;39;20104;-66
2023/08/07 02:19:57;;;;;;;8.35;2.90;;;;;;;14.07;90.49;101181.28;3614331;39;20039;-66
2023/08/07 02:22:23;;;;;;;8.88;2.60;;;;;;;14.08;89.98;101192.00;3612210;39;20058;-66
2023/08/07 02:24:48;;;;;;;8.13;3.05;;;;;;;14.08;89.91;101194.72;3614345;39;20070;-66
2023/08/07 02:27:14;;;;;;;7.32;3.00;;;;;;;14.10;90.30;101194.59;3613272;39;20258;-66
2023/08/07 02:29:39;;;;;;;10.02;3.10;;;;;;;14.10;89.98;101192.75;3614229;39;20090;-66
2023/08/07 02:32:06;;;;;;;7.13;2.80;;;;;;;14.10;90.71;101187.34;3612784;39;20666;-66
2023/08/07 02:34:32;;;;;;;8.68;3.25;;;;;;;14.11;90.62;101183.69;3613769;39;20055;-66
2023/08/07 02:36:59;;;;;;;8.90;2.90;;;;;;;14.11;90.96;101178.28;3612189;39;20378;-66
2023/08/07 02:39:25;;;;;;;8.80;2.88;;;;;;;14.09;90.87;101185.63;3613287;39;20150;-66
2023/08/07 02:41:51;;;;;;;6.97;2.85;;;;;;;14.09;90.98;101180.22;3614283;39;20104;-66
2023/08/07 02:44:20;;;;;;;10.88;3.17;;;;;;;14.11;91.58;101182.78;3615639;39;20063;-66
2023/08/07 02:46:46;;;;;;;6.97;2.97;;;;;;;14.12;91.51;101184.53;3615068;39;20280;-65
2023/08/07 02:49:12;;;;;;;9.77;3.15;;;;;;;14.14;92.14;101178.06;3611940;39;20058;-66
2023/08/07 02:51:38;;;;;;;7.38;2.67;;;;;;;14.16;91.69;101180.63;3615739;39;20058;-66
2023/08/07 02:54:03;;;;;;;7.43;2.88;;;;;;;14.13;91.70;101170.91;3616499;39;20394;-66
2023/08/07 02:56:29;;;;;;;7.97;3.05;;;;;;;14.16;91.95;101176.09;3619464;39;20066;-66
2023/08/07 02:58:58;;;;;;;7.07;2.95;;;;;;;14.06;92.35;101158.81;3620029;39;20042;-66
2023/08/07 03:01:23;;;;;;;11.57;3.28;;;;;;;14.17;92.17;101169.69;3614295;39;20059;-65
2023/08/07 03:03:49;;;;;;;8.55;3.10;;;;;;;13.86;92.41;101118.78;3614673;39;20139;-65
2023/08/07 03:06:15;;;;;;;12.27;3.28;;;;;;;14.21;91.89;101173.06;3613676;39;20304;-65
2023/08/07 03:08:40;;;;;;;6.93;3.03;;;;;;;13.74;92.00;101100.78;3612292;39;20062;-66
2023/08/07 03:11:06;;;;;;;8.75;2.92;;;;;;;14.23;91.75;101186.47;3614694;39;20054;-65
2023/08/07 03:13:31;;;;;;;8.95;2.90;;;;;;;14.22;91.88;101191.00;3615416;39;20057;-66
2023/08/07 03:16:06;;;;;;;9.68;3.17;;;;;;;14.02;90.95;101157.31;3614632;39;20063;-66
2023/08/07 03:18:33;;;;;;;10.18;3.00;;;;;;;14.15;90.25;101176.22;3613799;39;20047;-66
2023/08/07 03:21:00;;;;;;;8.43;3.08;;;;;;;14.20;90.07;101181.28;3613776;39;20074;-66
2023/08/07 03:23:28;;;;;;;8.85;2.88;;;;;;;14.22;89.99;101184.75;3602299;39;20077;-66
2023/08/07 03:26:12;;;;;;;9.15;3.13;;;;;;;14.25;90.27;101179.13;3613793;39;20122;-66
2023/08/07 03:28:39;;;;;;;12.98;4.22;;;;;;;14.28;89.79;101168.94;3612528;39;20051;-66
2023/08/07 03:31:05;;;;;;;9.35;3.20;;;;;;;14.33;89.79;101172.16;3612918;39;20070;-65
2023/08/07 03:33:31;;;;;;;10.15;3.00;;;;;;;14.34;89.70;101168.50;3612753;39;20090;-65
2023/08/07 03:35:58;;;;;;;9.02;3.05;;;;;;;14.35;89.51;101163.97;3613027;39;20058;-66
2023/08/07 03:38:23;;;;;;;11.57;3.45;;;;;;;14.34;89.17;101162.25;3615417;39;20051;-66
2023/08/07 03:40:49;;;;;;;14.50;7.50;;;;;;;14.35;88.94;101159.41;3613441;39;20051;-65
2023/08/07 03:43:15;;;;;;;8.02;3.45;;;;;;;14.34;88.15;101164.94;3613322;39;20087;-65
2023/08/07 03:45:41;;;;;;;6.60;2.88;;;;;;;14.14;87.56;101128.50;3611787;39;20318;-66
2023/08/07 03:48:06;;;;;;;7.65;2.75;;;;;;;14.32;86.96;101164.19;3610839;39;20063;-65
2023/08/07 03:50:34;;;;;;;9.13;3.40;;;;;;;14.31;86.73;101168.72;3613598;39;20059;-65
2023/08/07 03:53:01;;;;;;;9.18;3.05;;;;;;;14.32;85.69;101166.88;3612221;39;20050;-65
2023/08/07 03:55:26;;;;;;;6.97;3.00;;;;;;;14.33;85.50;101165.91;3614261;39;20313;-65
2023/08/07 03:57:52;;;;;;;7.03;3.10;;;;;;;14.35;85.51;101169.38;3612452;39;20135;-66
2023/08/07 04:00:18;;;;;;;11.10;3.33;;;;;;;14.38;85.11;101166.44;3611823;39;20168;-65
2023/08/07 04:02:44;;;;;;;9.77;3.08;;;;;;;14.39;84.50;101165.44;3612272;39;20039;-65
2023/08/07 04:05:10;;;;;;;8.88;2.97;;;;;;;14.37;83.91;101159.31;3613479;39;20055;-65
2023/08/07 04:07:36;;;;;;;5.22;2.72;;;;;;;14.41;83.75;101168.91;3613099;39;20066;-65
2023/08/07 04:10:02;;;;;;;7.78;3.13;;;;;;;14.32;82.80;101164.19;3614738;39;20050;-65
2023/08/07 04:12:27;;;;;;;8.70;2.90;;;;;;;14.51;82.64;101185.38;3616610;39;20310;-67
2023/08/07 04:14:53;;;;;;;10.45;3.38;;;;;;;14.51;82.41;101186.25;3615931;39;20054;-65
2023/08/07 04:17:19;;;;;;;15.48;3.35;;;;;;;14.49;83.51;101182.75;3618167;39;20073;-65
2023/08/07 04:19:44;;;;;;;9.65;3.35;;;;;;;14.47;83.77;101182.00;3616339;39;20046;-65
2023/08/07 04:22:10;;;;;;;11.27;3.22;;;;;;;14.46;83.99;101188.41;3614894;39;20054;-65
2023/08/07 04:24:35;;;;;;;11.43;3.30;;;;;;;14.36;83.80;101165.66;3617287;39;20134;-65
2023/08/07 04:27:01;;;;;;;8.20;2.85;;;;;;;14.45;83.98;101186.66;3616582;39;20047;-65
2023/08/07 04:29:27;;;;;;;9.35;3.15;;;;;;;14.46;84.37;101191.09;3615107;39;20066;-65
2023/08/07 04:31:52;;;;;;;10.25;3.22;;;;;;;14.44;83.59;101190.34;3614807;39;20070;-65
2023/08/07 04:34:18;;;;;;;9.00;3.20;;;;;;;14.43;84.12;101188.63;3615423;39;20074;-65
2023/08/07 04:36:44;;;;;;;8.35;3.30;;;;;;;14.41;85.22;101195.97;3616326;39;20351;-65
2023/08/07 04:39:11;;;;;;;7.57;3.25;;;;;;;14.39;84.75;101187.09;3613623;39;20054;-66
2023/08/07 04:41:36;;;;;;;10.45;3.15;;;;;;;14.39;85.01;101195.19;3616176;39;20377;-65
2023/08/07 04:44:02;;;;;;;10.30;3.25;;;;;;;14.37;84.79;101200.75;3613684;39;20058;-65
2023/08/07 04:46:28;;;;;;;9.40;2.78;;;;;;;14.38;84.47;101209.72;3615829;39;20063;-65
2023/08/07 04:48:54;;;;;;;8.52;3.20;;;;;;;14.40;85.39;101199.66;3607845;39;20047;-65
2023/08/07 04:51:19;;;;;;;10.38;2.90;;;;;;;14.39;84.50;101192.50;3608804;39;20458;-65
2023/08/07 04:53:45;;;;;;;9.18;2.85;;;;;;;14.42;84.34;101194.13;3615919;39;20066;-65
2023/08/07 04:56:11;;;;;;;9.13;3.00;;;;;;;14.40;83.92;101186.13;3614865;39;20058;-65
2023/08/07 04:58:37;;;;;;;8.80;2.63;;;;;;;14.44;83.77;101200.31;3617031;39;20050;-66
2023/08/07 05:01:03;;;;;;;8.52;2.72;;;;;;;14.47;83.58;101195.53;3615203;39;20043;-65
2023/08/07 05:03:30;;;;;;;7.30;2.55;;;;;;;14.48;82.64;101208.06;3614405;39;20148;-66
2023/08/07 05:06:02;;;;;;;8.98;2.70;;;;;;;14.48;82.32;101199.94;3616152;39;20058;-65
2023/08/07 05:08:27;;;;;;;8.88;2.50;;;;;;;14.49;81.75;101204.38;3615766;39;20062;-65
2023/08/07 05:10:53;;;;;;;9.45;2.75;;;;;;;14.48;82.05;101191.84;3616925;39;20054;-67
2023/08/07 05:13:19;;;;;;;7.72;2.47;;;;;;;14.51;82.08;101210.59;3613305;39;20070;-67
2023/08/07 05:15:48;;;;;;;6.38;2.35;;;;;;;14.50;81.77;101211.53;3614323;39;20128;-65
2023/08/07 05:18:14;;;;;;;7.13;2.55;;;;;;;14.51;81.80;101207.88;3617479;39;20519;-67
2023/08/07 05:20:40;;;;;;;6.47;2.03;;;;;;;14.52;81.58;101216.84;3620877;39;20050;-67
2023/08/07 05:23:05;;;;;;;5.85;2.47;;;;;;;14.53;81.98;101216.75;3616484;39;20047;-67
2023/08/07 05:25:31;;;;;;;5.75;3.00;;;;;;;14.52;81.52;101227.69;3614241;39;20050;-68
2023/08/07 05:27:57;;;;;;;6.18;2.55;;;;;;;14.51;81.54;101228.66;3614584;39;20050;-67
2023/08/07 05:30:22;;;;;;;12.85;3.30;;;;;;;14.51;82.02;101223.25;3614924;39;20075;-67
2023/08/07 05:32:48;;;;;;;7.25;2.83;;;;;;;14.48;81.71;101224.31;3614496;39;20057;-65
2023/08/07 05:35:14;;;;;;;5.93;2.38;;;;;;;14.48;81.48;101227.00;3612145;39;20369;-65
2023/08/07 05:37:40;;;;;;;6.82;2.20;;;;;;;14.48;81.59;101237.81;3619654;39;20159;-67
2023/08/07 05:40:06;;;;;;;6.70;2.90;;;;;;;14.48;82.05;101235.13;3618734;39;20098;-64
2023/08/07 05:42:32;;;;;;;6.03;2.50;;;;;;;14.48;82.46;101237.81;3613559;39;20139;-67
2023/08/07 05:44:59;;;;;;;12.40;3.28;;;;;;;14.49;81.92;101233.28;3614038;39;20277;-68
2023/08/07 05:47:25;;;;;;;10.43;2.67;;;;;;;14.34;81.91;101219.88;3614474;39;20054;-68
2023/08/07 05:49:50;;;;;;;8.27;2.65;;;;;;;14.53;82.29;101253.78;3616994;39;20051;-67
2023/08/07 05:52:17;;;;;;;9.88;2.85;;;;;;;14.53;82.19;101259.19;3621708;39;20046;-65
2023/08/07 05:54:43;;;;;;;8.88;2.65;;;;;;;14.53;82.04;101265.47;3608000;39;20412;-65
2023/08/07 05:57:10;;;;;;;10.45;2.70;;;;;;;14.55;82.47;101265.34;3613975;39;20334;-65
2023/08/07 05:59:36;;;;;;;6.65;2.45;;;;;;;14.55;82.37;101263.50;3617200;39;20300;-65
2023/08/07 06:02:03;;;;;;;11.73;5.68;;;;;;;14.54;81.55;101256.34;3612100;39;20050;-65
2023/08/07 06:04:28;;;;;;;10.23;3.28;;;;;;;14.59;82.03;101261.47;3615449;39;20320;-65
2023/08/07 06:06:54;;;;;;;7.07;2.63;;;;;;;14.62;81.66;101255.81;3615250;39;20054;-65
2023/08/07 06:09:21;;;;;;;7.35;2.42;;;;;;;14.64;81.56;101259.25;3616781;39;20406;-65
2023/08/07 06:11:47;;;;;;;5.28;2.10;;;;;;;14.66;80.73;101260.03;3616850;39;20063;-65
2023/08/07 06:14:13;;;;;;;8.88;2.60;;;;;;;14.68;80.40;101257.19;3615336;39;20119;-65
2023/08/07 06:16:39;;;;;;;8.95;2.78;;;;;;;14.74;80.16;101267.59;3613658;39;20058;-65
2023/08/07 06:19:04;;;;;;;7.65;2.20;;;;;;;14.77;79.41;101267.38;3617235;39;20274;-65
2023/08/07 06:21:30;;;;;;;5.10;1.98;;;;;;;14.81;79.41;101263.44;3617810;39;20066;-65
2023/08/07 06:23:56;;;;;;;9.40;2.90;;;;;;;14.86;79.54;101269.41;3621698;39;20098;-65
2023/08/07 06:26:22;;;;;;;8.73;2.53;;;;;;;14.92;78.81;101266.25;3616984;39;20189;-65
2023/08/07 06:28:48;;;;;;;7.18;2.13;;;;;;;14.98;78.42;101267.66;3616665;39;20054;-67
2023/08/07 06:31:16;;;;;;;8.57;2.60;;;;;;;15.05;77.94;101272.50;3613387;39;20050;-66
2023/08/07 06:33:42;;;;;;;9.50;2.40;;;;;;;15.17;77.51;101284.28;3613221;39;20131;-67
2023/08/07 06:36:11;;;;;;;7.22;2.28;;;;;;;15.22;76.20;101283.91;3616152;39;20330;-65
2023/08/07 06:38:37;;;;;;;8.68;2.42;;;;;;;15.28;75.97;101281.63;3613715;39;20361;-65
2023/08/07 06:41:04;;;;;;;11.80;4.30;;;;;;;15.21;76.29;101274.94;3613094;39;20095;-65
2023/08/07 06:43:30;;;;;;;8.57;2.25;;;;;;;15.39;75.71;101296.22;3613883;39;20061;-65
2023/08/07 06:45:57;;;;;;;11.00;2.30;;;;;;;15.42;74.91;101296.00;3613527;39;20043;-65
2023/08/07 06:48:23;;;;;;;9.35;2.10;;;;;;;15.46;75.18;101292.94;3614615;39;20061;-65
2023/08/07 06:50:50;;;;;;;7.57;2.55;;;;;;;15.05;74.84;101222.91;3615495;39;20155;-65
2023/08/07 06:53:16;;;;;;;7.97;2.63;;;;;;;15.41;74.33;101281.56;3613028;39;20285;-65
2023/08/07 06:55:42;;;;;;;5.32;2.05;;;;;;;15.60;75.10;101304.56;3614629;39;20050;-65
2023/08/07 06:58:08;;;;;;;5.47;2.30;;;;;;;15.66;75.01;101293.28;3613482;39;20050;-65
2023/08/07 07:00:37;;;;;;;8.88;2.90;;;;;;;15.69;73.61;101295.78;3613019;39;20135;-65
2023/08/07 07:03:04;;;;;;;9.35;2.83;;;;;;;15.75;73.98;101298.88;3615167;39;20347;-65
2023/08/07 07:05:32;;;;;;;6.22;2.17;;;;;;;15.80;73.00;101289.56;3613763;39;20089;-65
2023/08/07 07:07:58;;;;;;;6.50;1.75;;;;;;;16.00;73.52;101308.72;3612921;39;20054;-65
2023/08/07 07:10:24;;;;;;;8.77;2.20;;;;;;;16.02;72.59;101300.50;3614826;39;20063;-65
2023/08/07 07:12:49;;;;;;;8.50;2.22;;;;;;;16.17;72.68;101318.25;3614673;39;20405;-65
2023/08/07 07:15:16;;;;;;;8.23;2.35;;;;;;;16.29;71.92;101318.31;3613609;39;20051;-65
2023/08/07 07:17:41;;;;;;;9.98;2.33;;;;;;;16.50;73.32;101321.19;3612505;39;20082;-65
2023/08/07 07:20:11;;;;;;;9.43;2.13;;;;;;;16.69;72.64;101330.47;3618105;39;20049;-65
2023/08/07 07:22:36;;;;;;;8.30;2.10;;;;;;;16.72;69.91;101329.34;3613130;39;20071;-65
2023/08/07 07:25:02;;;;;;;6.18;2.03;;;;;;;16.75;70.03;101334.56;3613194;39;20286;-65
2023/08/07 07:27:28;;;;;;;7.80;2.90;;;;;;;16.75;69.80;101340.00;3613338;39;20381;-64
2023/08/07 07:29:53;;;;;;;9.98;2.20;;;;;;;16.73;70.15;101338.38;3612957;39;20065;-65
2023/08/07 07:32:19;;;;;;;9.00;1.90;;;;;;;16.72;69.98;101337.50;3614193;39;20046;-65
2023/08/07 07:34:45;;;;;;;6.45;1.92;;;;;;;16.54;68.95;101309.97;3613250;39;20223;-65
2023/08/07 07:37:10;;;;;;;9.75;2.25;;;;;;;16.70;68.63;101345.75;3613000;39;20042;-65
2023/08/07 07:39:36;;;;;;;9.88;2.20;;;;;;;16.67;67.44;101346.00;3613659;39;20057;-64
2023/08/07 07:42:04;;;;;;;9.43;1.95;;;;;;;16.71;67.90;101346.63;3612767;39;20301;-65
2023/08/07 07:44:30;;;;;;;7.53;2.35;;;;;;;16.75;67.83;101348.16;3613254;39;20398;-67
2023/08/07 07:46:55;;;;;;;5.63;1.80;;;;;;;16.81;67.36;101353.09;3616595;39;20057;-65
2023/08/07 07:49:21;;;;;;;7.10;1.83;;;;;;;16.90;66.13;101352.38;3613340;39;20117;-65
2023/08/07 07:51:47;;;;;;;7.25;2.00;;;;;;;16.99;65.95;101363.47;3612211;39;20428;-65
2023/08/07 07:54:13;;;;;;;7.53;1.95;;;;;;;17.00;64.44;101352.47;3613544;39;20050;-65
2023/08/07 07:56:38;;;;;;;8.80;2.05;;;;;;;17.02;65.81;101360.50;3612958;39;20050;-65
2023/08/07 07:59:04;;;;;;;4.03;1.77;;;;;;;17.01;65.59;101369.66;3612108;39;20058;-65
2023/08/07 08:01:29;;;;;;;5.95;2.00;;;;;;;16.97;64.89;101370.84;3614448;39;20065;-64
2023/08/07 08:03:55;;;;;;;4.88;2.10;;;;;;;16.94;64.71;101375.56;3616006;39;20065;-64
2023/08/07 08:06:21;;;;;;;11.23;1.80;;;;;;;17.00;66.18;101379.66;3615939;39;20043;-64
2023/08/07 08:08:47;;;;;;;8.57;2.05;;;;;;;17.02;65.36;101382.22;3613222;39;20656;-64
2023/08/07 08:11:13;;;;;;;7.45;2.15;;;;;;;17.08;66.73;101379.00;3605718;39;20135;-67
2023/08/07 08:13:40;;;;;;;7.43;2.25;;;;;;;17.22;65.82;101378.78;3612759;39;20059;-65
2023/08/07 08:16:07;;;;;;;7.70;2.25;;;;;;;17.41;64.23;101383.56;3612753;39;20047;-64
2023/08/07 08:18:32;;;;;;;12.85;7.25;;;;;;;17.62;64.63;101381.78;3613664;39;20057;-66
2023/08/07 08:20:58;;;;;;;5.18;1.83;;;;;;;17.88;63.21;101372.50;3614406;39;20062;-66
2023/08/07 08:23:24;;;;;;;6.00;2.33;;;;;;;17.91;62.23;101347.75;3612367;39;20387;-65
2023/08/07 08:25:50;;;;;;;6.55;2.05;;;;;;;18.35;60.76;101379.34;3614066;39;20055;-66
2023/08/07 08:28:18;;;;;;;4.38;1.73;;;;;;;18.59;60.22;101375.50;3604713;39;20070;-66
2023/08/07 08:30:44;;;;;;;5.25;1.40;;;;;;;18.81;57.51;101379.94;3612510;39;20057;-65
2023/08/07 08:33:12;;;;;;;4.78;2.15;;;;;;;18.94;56.59;101380.63;3614549;39;20261;-65
2023/08/07 08:35:38;;;;;;;3.80;1.67;;;;;;;18.89;54.25;101382.88;3616637;39;20270;-66
2023/08/07 08:38:04;;;;;;;5.20;1.67;;;;;;;18.94;52.61;101388.78;3614713;39;20103;-66
2023/08/07 08:40:31;;;;;;;2.88;1.40;;;;;;;19.11;52.68;101382.69;3612856;39;20075;-64
2023/08/07 08:43:00;;;;;;;4.35;1.70;;;;;;;19.28;51.10;101391.22;3620380;39;20068;-65
2023/08/07 08:45:30;;;;;;;3.97;1.85;;;;;;;19.26;51.93;101391.38;3618070;39;20115;-65
2023/08/07 08:48:03;;;;;;;2.92;1.38;;;;;;;19.34;52.84;101396.97;3612933;39;20063;-65
2023/08/07 08:50:30;;;;;;;5.13;1.30;;;;;;;19.29;52.36;101396.56;3612997;39;20051;-64
2023/08/07 08:52:57;;;;;;;5.72;1.70;;;;;;;19.21;53.27;101408.13;3613466;39;20058;-65
2023/08/07 08:55:23;;;;;;;4.18;1.73;;;;;;;18.93;52.31;101370.69;3614203;39;20047;-65
2023/08/07 08:57:50;;;;;;;3.25;1.48;;;;;;;18.50;53.48;101347.22;3613486;39;20054;-65
2023/08/07 09:00:21;;;;;;;4.88;1.60;;;;;;;18.91;52.81;101399.97;3611579;39;20095;-65
2023/08/07 09:02:50;;;;;;;3.92;1.60;;;;;;;19.09;53.61;101398.31;3614187;39;20647;-66
2023/08/07 09:05:20;;;;;;;3.33;1.40;;;;;;;19.41;50.79;101402.75;3616720;39;20416;-65
2023/08/07 09:07:47;;;;;;;3.30;1.60;;;;;;;19.67;48.86;101408.63;3614839;39;20300;-65
2023/08/07 09:10:14;;;;;;;4.00;1.48;;;;;;;19.86;48.25;101395.00;3617123;39;20135;-65
2023/08/07 09:12:51;;;;;;;3.88;1.48;;;;;;;20.07;46.94;101419.44;3613583;39;20297;-65
2023/08/07 09:15:21;;;;;;;6.15;1.75;;;;;;;20.25;47.40;101410.56;3614755;39;20058;-64
2023/08/07 09:17:50;;;;;;;4.35;1.50;;;;;;;20.46;47.90;101410.41;3614838;39;20096;-65
2023/08/07 09:20:17;;;;;;;5.03;1.40;;;;;;;20.72;47.85;101419.75;3614242;39;20070;-65
2023/08/07 09:22:42;;;;;;;4.18;1.77;;;;;;;20.58;45.70;101415.59;3613639;39;21370;-65
2023/08/07 09:25:11;;;;;;;3.72;1.52;;;;;;;20.28;45.38;101416.59;3618145;39;20113;-65
2023/08/07 09:27:39;;;;;;;3.63;1.55;;;;;;;20.35;45.98;101422.34;3603939;39;20050;-65
2023/08/07 09:30:09;;;;;;;5.13;1.80;;;;;;;20.56;47.02;101414.03;3617031;39;20059;-65
2023/08/07 09:32:36;;;;;;;4.20;1.52;;;;;;;20.73;45.62;101426.06;3612714;39;20055;-65
2023/08/07 09:35:05;;;;;;;5.57;1.88;;;;;;;20.88;45.37;101424.59;3615165;39;20047;-65
2023/08/07 09:37:32;;;;;;;4.43;2.00;;;;;;;20.99;45.73;101421.69;3615749;39;20103;-65
2023/08/07 09:40:01;;;;;;;4.75;1.40;;;;;;;21.10;46.38;101429.72;3614644;39;20047;-65
2023/08/07 09:42:34;;;;;;;6.70;1.88;;;;;;;21.16;45.09;101421.94;3614800;39;20047;-64
2023/08/07 09:45:00;;;;;;;4.32;1.70;;;;;;;21.14;45.16;101424.81;3619294;39;20058;-65
2023/08/07 09:47:28;;;;;;;8.38;1.88;;;;;;;21.36;45.93;101442.75;3616628;39;20043;-65
2023/08/07 09:49:56;;;;;;;3.53;1.92;;;;;;;21.26;46.78;101439.19;3604091;39;20058;-65
2023/08/07 09:52:21;;;;;;;4.32;1.63;;;;;;;21.01;46.54;101414.22;3617980;39;20050;-65
2023/08/07 09:54:47;;;;;;;5.32;1.60;;;;;;;21.31;45.73;101439.56;3615283;39;20468;-65
2023/08/07 09:57:13;;;;;;;3.10;1.55;;;;;;;21.43;45.12;101443.88;3614311;39;20051;-65
2023/08/07 09:59:41;;;;;;;5.32;1.85;;;;;;;21.62;43.97;101450.28;3615879;39;20070;-65
2023/08/07 10:02:08;;;;;;;5.05;1.58;;;;;;;21.75;43.26;101448.03;3613291;39;20434;-65
2023/08/07 10:04:35;;;;;;;3.40;1.88;;;;;;;21.89;42.81;101441.22;3603780;39;20049;-65
2023/08/07 10:07:01;;;;;;;3.03;1.55;;;;;;;22.20;42.34;101445.34;3615281;39;20412;-65
2023/08/07 10:09:28;;;;;;;4.03;1.52;;;;;;;22.35;41.69;101453.00;3613880;39;20405;-65
2023/08/07 10:11:55;;;;;;;2.20;1.45;;;;;;;22.43;39.90;101455.84;3614328;39;20123;-64
2023/08/07 10:14:22;;;;;;;4.95;1.80;;;;;;;22.54;40.91;101446.50;3615063;39;20063;-65
2023/08/07 10:16:51;;;;;;;2.28;1.08;;;;;;;22.34;39.19;101446.66;3615569;39;20313;-64
2023/08/07 10:19:17;;;;;;;5.20;1.60;;;;;;;22.29;40.53;101459.09;3614680;39;20080;-65
2023/08/07 10:21:45;;;;;;;6.32;1.63;;;;;;;22.24;41.65;101462.31;3612903;39;20115;-65
2023/08/07 10:24:13;;;;;;;6.25;1.92;;;;;;;22.05;40.99;101467.91;3614412;39;20043;-64
2023/08/07 10:26:48;;;;;;;3.17;1.60;;;;;;;22.15;40.54;101468.69;3613595;39;20055;-65
2023/08/07 10:29:20;;;;;;;1.83;1.10;;;;;;;22.23;39.75;101463.31;3615967;39;20079;-65
2023/08/07 10:31:49;;;;;;;3.77;1.40;;;;;;;22.35;39.76;101458.47;3615756;39;20139;-65
2023/08/07 10:34:15;;;;;;;2.08;1.40;;;;;;;22.52;38.48;101465.84;3614819;39;20252;-66
2023/08/07 10:36:41;;;;;;;4.88;1.95;;;;;;;22.67;39.11;101458.78;3616099;39;20046;-66
2023/08/07 10:39:14;;;;;;;2.97;1.40;;;;;;;22.73;39.44;101459.16;3616687;39;20087;-65
2023/08/07 10:41:45;;;;;;;2.08;1.50;;;;;;;22.51;40.12;101469.59;3614010;39;20054;-65
2023/08/07 10:44:23;;;;;;;4.10;1.50;;;;;;;22.28;40.59;101485.63;3612997;39;20312;-65
2023/08/07 10:46:58;;;;;;;2.67;1.52;;;;;;;22.14;40.85;101481.53;3616188;39;20232;-65
2023/08/07 10:49:33;;;;;;;4.60;1.77;;;;;;;22.16;41.07;101481.41;3616178;39;20052;-66
2023/08/07 10:52:14;;;;;;;4.30;1.98;;;;;;;22.34;41.90;101468.59;3614644;39;20059;-66
2023/08/07 10:54:46;;;;;;;3.80;1.65;;;;;;;22.58;41.72;101475.31;3612964;39;20059;-66
2023/08/07 10:57:18;;;;;;;3.38;1.75;;;;;;;22.75;39.97;101471.69;3613585;39;20115;-66
2023/08/07 10:59:55;;;;;;;3.17;1.33;;;;;;;22.64;38.81;101482.91;3613987;39;20108;-65
2023/08/07 11:02:28;;;;;;;2.67;1.42;;;;;;;22.82;40.13;101482.88;3612857;39;20062;-65
2023/08/07 11:04:55;;;;;;;1.75;1.42;;;;;;;23.05;39.65;101483.25;3614484;39;20046;-65
2023/08/07 11:07:29;;;;;;;2.72;1.33;;;;;;;22.96;37.94;101476.00;3615436;39;20039;-65
2023/08/07 11:09:57;;;;;;;4.75;1.70;;;;;;;22.76;38.19;101484.38;3613118;39;20151;-64
2023/08/07 11:12:27;;;;;;;3.22;1.48;;;;;;;22.97;41.75;101481.34;3614229;39;20110;-64
2023/08/07 11:14:58;;;;;;;5.70;1.85;;;;;;;23.33;39.97;101476.59;3615002;39;20086;-64
2023/08/07 11:17:29;;;;;;;2.25;1.40;;;;;;;23.39;38.51;101475.94;3616033;39;20293;-65
2023/08/07 11:19:57;;;;;;;5.15;1.65;;;;;;;23.38;37.67;101482.47;3613544;39;20155;-65
2023/08/07 11:22:23;;;;;;;1.83;1.40;;;;;;;23.44;38.72;101488.31;3613357;39;20155;-64
2023/08/07 11:24:51;;;;;;;3.13;1.40;;;;;;;23.34;39.14;101486.56;3616278;39;20094;-64